Time;durP1;ratioP1;P1;durP2;ratioP2;P2;SDS_P1;SDS_P2;PMS_P1;PMS_P2;Temp;Humidity;BMP_temperature;BMP_pressure;BME280_temperature;BME280_humidity;BME280_pressure;Samples;Min_cycle;Max_cycle;Signal;HPM_P1;HPM_P2
2023/07/15 00:00:15;;;;;;;1999.90;999.90;;;23.50;9.70;;;;;;5015424;28;20474;-72
2023/07/15 00:02:42;;;;;;;1999.90;999.90;;;23.50;10.00;;;;;;5015486;28;20445;-72
2023/07/15 00:05:25;;;;;;;1999.90;999.90;;;23.50;9.80;;;;;;5016273;28;20550;-72
2023/07/15 00:07:51;;;;;;;1999.90;999.90;;;23.60;10.50;;;;;;5009480;28;20469;-71
2023/07/15 00:10:17;;;;;;;1999.90;999.90;;;23.50;10.40;;;;;;5015924;28;20382;-72
2023/07/15 00:12:43;;;;;;;1999.90;999.90;;;23.50;10.40;;;;;;5015750;28;20420;-72
2023/07/15 00:15:11;;;;;;;1999.90;999.90;;;23.50;10.90;;;;;;5015874;28;20173;-73
2023/07/15 00:17:37;;;;;;;1999.90;999.90;;;23.50;11.10;;;;;;5015418;28;20555;-72
2023/07/15 00:20:07;;;;;;;1999.90;999.90;;;23.50;11.70;;;;;;5015522;28;20378;-72
2023/07/15 00:22:34;;;;;;;1999.90;999.90;;;23.40;11.90;;;;;;5015196;28;20193;-72
2023/07/15 00:24:59;;;;;;;1999.90;999.90;;;23.40;12.10;;;;;;5015677;28;20434;-72
2023/07/15 00:27:25;;;;;;;1999.90;999.90;;;23.40;11.60;;;;;;5015886;28;20945;-72
2023/07/15 00:29:51;;;;;;;1999.90;999.90;;;23.40;12.00;;;;;;5015750;28;20192;-72
2023/07/15 00:32:17;;;;;;;1999.90;999.90;;;23.30;12.50;;;;;;5015320;28;20197;-72
2023/07/15 00:34:42;;;;;;;1999.90;999.90;;;23.20;13.70;;;;;;5016008;28;20184;-72
2023/07/15 00:37:08;;;;;;;1999.90;999.90;;;23.20;13.40;;;;;;5015726;28;20375;-72
2023/07/15 00:39:35;;;;;;;1999.90;999.90;;;23.10;13.30;;;;;;5015711;28;20265;-72
2023/07/15 00:42:08;;;;;;;1999.90;999.90;;;23.00;14.20;;;;;;5015268;28;20428;-72
2023/07/15 00:44:34;;;;;;;1999.90;999.90;;;23.00;14.60;;;;;;5014512;28;20409;-72
2023/07/15 00:47:25;;;;;;;1999.90;999.90;;;22.90;14.50;;;;;;5015497;28;20396;-72
2023/07/15 00:49:51;;;;;;;1999.90;999.90;;;22.90;14.40;;;;;;5015692;28;20417;-71
2023/07/15 00:52:20;;;;;;;1999.90;999.90;;;22.90;15.10;;;;;;5014987;28;20430;-72
2023/07/15 00:54:48;;;;;;;1999.90;999.90;;;22.80;15.80;;;;;;5015417;28;20204;-72
2023/07/15 00:57:17;;;;;;;1999.90;999.90;;;22.80;16.20;;;;;;5015752;28;20440;-72
2023/07/15 00:59:45;;;;;;;1999.90;999.90;;;22.80;16.70;;;;;;5015536;28;20920;-71
2023/07/15 01:02:12;;;;;;;1999.90;999.90;;;22.70;17.30;;;;;;5015306;28;20496;-72
2023/07/15 01:04:38;;;;;;;1999.90;999.90;;;22.70;18.40;;;;;;5014845;28;20426;-72
2023/07/15 01:07:07;;;;;;;1999.90;999.90;;;22.60;17.40;;;;;;5015125;28;20375;-72
2023/07/15 01:09:34;;;;;;;1999.90;999.90;;;22.60;17.60;;;;;;5014981;28;20632;-72
2023/07/15 01:12:00;;;;;;;1999.90;999.90;;;22.60;16.90;;;;;;5014351;28;20432;-72
2023/07/15 01:14:28;;;;;;;1999.90;999.90;;;22.60;17.00;;;;;;5015278;28;20490;-72
2023/07/15 01:16:54;;;;;;;1999.90;999.90;;;22.60;16.90;;;;;;5015049;28;20196;-72
2023/07/15 01:19:20;;;;;;;1999.90;999.90;;;22.60;16.80;;;;;;5014915;28;20476;-72
2023/07/15 01:21:49;;;;;;;1999.90;999.90;;;22.70;17.10;;;;;;5014238;28;20420;-72
2023/07/15 01:24:15;;;;;;;1999.90;999.90;;;22.70;16.80;;;;;;5014888;28;20386;-72
2023/07/15 01:26:40;;;;;;;1999.90;999.90;;;22.70;16.70;;;;;;5014894;28;20456;-72
2023/07/15 01:29:06;;;;;;;1999.90;999.90;;;22.70;16.90;;;;;;5014898;28;20165;-72
2023/07/15 01:31:32;;;;;;;1999.90;999.90;;;22.70;16.70;;;;;;5014786;28;20666;-72
2023/07/15 01:33:57;;;;;;;1999.90;999.90;;;22.70;16.40;;;;;;5014669;28;20306;-72
2023/07/15 01:36:24;;;;;;;1999.90;999.90;;;22.70;16.70;;;;;;5015212;28;20161;-72
2023/07/15 01:38:50;;;;;;;1999.90;999.90;;;22.70;16.90;;;;;;5014724;28;20168;-72
2023/07/15 01:41:16;;;;;;;1999.90;999.90;;;22.70;16.70;;;;;;5014541;28;20492;-72
2023/07/15 01:43:42;;;;;;;1999.90;999.90;;;22.80;16.30;;;;;;5015045;28;20215;-72
2023/07/15 01:46:07;;;;;;;1999.90;999.90;;;22.80;16.40;;;;;;5014248;28;20548;-72
2023/07/15 01:48:33;;;;;;;1999.90;999.90;;;22.70;16.60;;;;;;5014915;28;20165;-72
2023/07/15 01:50:58;;;;;;;1999.90;999.90;;;22.80;16.30;;;;;;5013912;28;20184;-72
2023/07/15 01:53:24;;;;;;;1999.90;999.90;;;22.80;16.60;;;;;;5014684;28;20181;-72
2023/07/15 01:55:50;;;;;;;1999.90;999.90;;;22.70;16.70;;;;;;5014084;28;20169;-72
2023/07/15 01:58:16;;;;;;;1999.90;999.90;;;22.70;17.00;;;;;;5014246;28;20197;-72
2023/07/15 02:00:42;;;;;;;1999.90;999.90;;;22.70;17.00;;;;;;5013926;28;20207;-72
2023/07/15 02:03:08;;;;;;;1999.90;999.90;;;22.60;16.90;;;;;;5013931;28;20431;-72
2023/07/15 02:05:34;;;;;;;1999.90;999.90;;;22.60;17.00;;;;;;5014423;28;20430;-72
2023/07/15 02:07:59;;;;;;;1999.90;999.90;;;22.60;17.30;;;;;;5014513;28;20169;-72
2023/07/15 02:10:25;;;;;;;1999.90;999.90;;;22.60;17.40;;;;;;5014595;28;20408;-72
2023/07/15 02:12:51;;;;;;;1999.90;999.90;;;22.60;17.30;;;;;;5013812;28;20173;-71
2023/07/15 02:15:17;;;;;;;1999.90;999.90;;;22.60;17.60;;;;;;5014432;28;20661;-72
2023/07/15 02:17:43;;;;;;;1999.90;999.90;;;22.60;17.70;;;;;;5014630;28;20537;-72
2023/07/15 02:20:09;;;;;;;1999.90;999.90;;;22.50;18.00;;;;;;5014758;28;20184;-72
2023/07/15 02:22:35;;;;;;;1999.90;999.90;;;22.50;17.90;;;;;;5014004;28;21014;-72
2023/07/15 02:25:00;;;;;;;1999.90;999.90;;;22.50;17.70;;;;;;5013574;28;20531;-72
2023/07/15 02:27:26;;;;;;;1999.90;999.90;;;22.40;18.10;;;;;;5013548;28;20529;-72
2023/07/15 02:29:52;;;;;;;1999.90;999.90;;;22.40;18.00;;;;;;5014321;28;20196;-72
2023/07/15 02:32:42;;;;;;;1999.90;999.90;;;22.40;18.00;;;;;;5014404;28;20185;-72
2023/07/15 02:35:13;;;;;;;1999.90;999.90;;;22.40;17.70;;;;;;5013871;28;20211;-72
2023/07/15 02:37:42;;;;;;;1999.90;999.90;;;22.50;17.50;;;;;;5014416;28;20412;-72
2023/07/15 02:40:09;;;;;;;1999.90;999.90;;;22.40;17.50;;;;;;5014322;28;20392;-72
2023/07/15 02:42:36;;;;;;;1999.90;999.90;;;22.50;17.40;;;;;;5014078;28;20430;-72
2023/07/15 02:45:03;;;;;;;1999.90;999.90;;;22.50;17.60;;;;;;5012923;28;20475;-72
2023/07/15 02:47:30;;;;;;;1999.90;999.90;;;22.50;17.60;;;;;;5013913;28;20408;-72
2023/07/15 02:49:56;;;;;;;1999.90;999.90;;;22.50;17.60;;;;;;5014234;28;20404;-73
2023/07/15 02:52:23;;;;;;;1999.90;999.90;;;22.50;17.60;;;;;;5013331;28;20551;-72
2023/07/15 02:54:49;;;;;;;1999.90;999.90;;;22.50;17.60;;;;;;5013414;28;20393;-72
2023/07/15 02:57:14;;;;;;;1999.90;999.90;;;22.50;17.50;;;;;;5013762;28;20382;-71
2023/07/15 02:59:40;;;;;;;1999.90;999.90;;;22.50;17.70;;;;;;5013332;28;20180;-72
2023/07/15 03:02:06;;;;;;;1999.90;999.90;;;22.50;17.80;;;;;;5012609;28;20199;-72
2023/07/15 03:04:31;;;;;;;1999.90;999.90;;;22.50;17.90;;;;;;5012861;28;20533;-72
2023/07/15 03:06:58;;;;;;;1999.90;999.90;;;22.40;17.90;;;;;;5013177;28;20487;-72
2023/07/15 03:09:25;;;;;;;1999.90;999.90;;;22.40;18.20;;;;;;5012782;28;20156;-72
2023/07/15 03:11:50;;;;;;;1999.90;999.90;;;22.30;18.70;;;;;;5012209;28;20402;-72
2023/07/15 03:14:16;;;;;;;1999.90;999.90;;;22.30;18.70;;;;;;5012177;28;20469;-72
2023/07/15 03:16:42;;;;;;;1999.90;999.90;;;22.20;19.50;;;;;;5012069;28;20172;-72
2023/07/15 03:19:07;;;;;;;1999.90;999.90;;;22.20;19.20;;;;;;5012049;28;20165;-72
2023/07/15 03:21:33;;;;;;;1999.90;999.90;;;22.20;19.90;;;;;;5011628;28;20220;-72
2023/07/15 03:23:59;;;;;;;1999.90;999.90;;;22.10;20.30;;;;;;4998952;28;20220;-72
2023/07/15 03:26:24;;;;;;;1999.90;999.90;;;22.00;20.40;;;;;;4992437;28;20230;-72
2023/07/15 03:28:50;;;;;;;1999.90;999.90;;;22.00;20.30;;;;;;4992495;28;20657;-71
2023/07/15 03:31:15;;;;;;;1999.90;999.90;;;22.00;20.20;;;;;;4991915;28;20217;-71
2023/07/15 03:33:41;;;;;;;1999.90;999.90;;;22.00;20.20;;;;;;4992313;28;20170;-72
2023/07/15 03:36:07;;;;;;;1999.90;999.90;;;22.00;20.60;;;;;;4992453;28;20184;-72
2023/07/15 03:38:32;;;;;;;1999.90;999.90;;;22.00;20.50;;;;;;4992350;28;20257;-72
2023/07/15 03:40:58;;;;;;;1999.90;999.90;;;22.00;20.60;;;;;;4991907;28;20686;-72
2023/07/15 03:43:23;;;;;;;1999.90;999.90;;;22.00;20.80;;;;;;4992328;28;20515;-72
2023/07/15 03:45:49;;;;;;;1999.90;999.90;;;22.00;20.80;;;;;;4992049;28;20210;-72
2023/07/15 03:48:14;;;;;;;1999.90;999.90;;;22.10;20.80;;;;;;4992263;28;20172;-72
2023/07/15 03:50:43;;;;;;;1999.90;999.90;;;22.00;20.70;;;;;;4992087;28;20247;-72
2023/07/15 03:53:08;;;;;;;1999.90;999.90;;;22.00;21.50;;;;;;4991854;28;20176;-72
2023/07/15 03:55:37;;;;;;;1999.90;999.90;;;21.90;21.80;;;;;;4993039;28;20404;-72
2023/07/15 03:58:02;;;;;;;1999.90;999.90;;;21.90;22.30;;;;;;4995680;28;20204;-72
2023/07/15 04:00:28;;;;;;;1999.90;999.90;;;21.80;22.50;;;;;;4995587;28;20440;-72
2023/07/15 04:02:55;;;;;;;1999.90;999.90;;;21.90;23.30;;;;;;4995429;28;20442;-71
2023/07/15 04:05:20;;;;;;;1999.90;999.90;;;21.90;23.60;;;;;;4995701;28;20211;-72
2023/07/15 04:07:47;;;;;;;1999.90;999.90;;;21.90;24.00;;;;;;4995477;28;20483;-72
2023/07/15 04:10:13;;;;;;;1999.90;999.90;;;21.90;24.30;;;;;;4995584;28;20661;-72
2023/07/15 04:12:38;;;;;;;1999.90;999.90;;;21.90;24.30;;;;;;4995194;28;20442;-71
2023/07/15 04:15:05;;;;;;;1999.90;999.90;;;21.90;24.70;;;;;;4995406;28;20292;-72
2023/07/15 04:17:31;;;;;;;1999.90;999.90;;;21.90;24.90;;;;;;4995553;28;20181;-72
2023/07/15 04:19:56;;;;;;;1999.90;999.90;;;21.90;25.20;;;;;;4995926;28;20798;-71
2023/07/15 04:22:23;;;;;;;1999.90;999.90;;;21.80;25.20;;;;;;4995620;28;20189;-72
2023/07/15 04:24:48;;;;;;;1999.90;999.90;;;21.90;25.80;;;;;;4995980;28;20569;-72
2023/07/15 04:27:14;;;;;;;1999.90;999.90;;;21.90;26.30;;;;;;4996478;28;20473;-72
2023/07/15 04:29:39;;;;;;;1999.90;999.90;;;21.90;26.30;;;;;;4996146;28;20166;-72
2023/07/15 04:32:05;;;;;;;1999.90;999.90;;;21.90;26.50;;;;;;4995704;28;20185;-72
2023/07/15 04:34:31;;;;;;;1999.90;999.90;;;21.90;27.10;;;;;;4995941;28;20264;-71
2023/07/15 04:36:56;;;;;;;1999.90;999.90;;;21.90;28.10;;;;;;4995908;28;20227;-72
2023/07/15 04:39:22;;;;;;;1999.90;999.90;;;21.90;29.10;;;;;;4995881;28;20197;-72
2023/07/15 04:41:47;;;;;;;1999.90;999.90;;;21.90;29.80;;;;;;4995370;28;20197;-72
2023/07/15 04:44:13;;;;;;;1999.90;999.90;;;21.90;29.10;;;;;;5010811;28;20211;-72
2023/07/15 04:46:38;;;;;;;1999.90;999.90;;;21.90;29.40;;;;;;5012927;28;20226;-72
2023/07/15 04:49:04;;;;;;;1999.90;999.90;;;21.90;30.00;;;;;;5010305;28;20177;-72
2023/07/15 04:51:30;;;;;;;1999.90;999.90;;;22.00;31.30;;;;;;5015362;28;20608;-72
2023/07/15 04:53:56;;;;;;;1999.90;999.90;;;22.00;32.30;;;;;;5015458;28;20182;-72
2023/07/15 04:56:22;;;;;;;1999.90;999.90;;;22.00;32.20;;;;;;5015560;28;20177;-72
2023/07/15 04:58:48;;;;;;;1999.90;999.90;;;22.00;33.30;;;;;;5015142;28;20462;-72
2023/07/15 05:01:13;;;;;;;1999.90;999.90;;;22.10;33.90;;;;;;5015028;28;20211;-72
2023/07/15 05:03:40;;;;;;;1999.90;999.90;;;22.10;35.00;;;;;;5015750;28;20200;-72
2023/07/15 05:06:05;;;;;;;1999.90;999.90;;;22.20;36.60;;;;;;5015316;28;20215;-72
2023/07/15 05:08:31;;;;;;;1999.90;999.90;;;22.30;35.60;;;;;;5014378;28;20377;-72
2023/07/15 05:10:57;;;;;;;1999.90;999.90;;;22.40;35.60;;;;;;5015083;28;20227;-72
2023/07/15 05:13:23;;;;;;;1999.90;999.90;;;22.40;36.10;;;;;;5015476;28;20719;-72
2023/07/15 05:15:49;;;;;;;1999.90;999.90;;;22.50;36.70;;;;;;5015160;28;20386;-72
2023/07/15 05:18:15;;;;;;;1999.90;999.90;;;22.50;37.40;;;;;;5014267;28;20402;-72
2023/07/15 05:20:41;;;;;;;1999.90;999.90;;;22.60;37.60;;;;;;5011865;28;20202;-72
2023/07/15 05:23:07;;;;;;;1999.90;999.90;;;22.60;37.90;;;;;;5009915;28;20420;-72
2023/07/15 05:25:33;;;;;;;1999.90;999.90;;;22.70;38.80;;;;;;5015136;28;20664;-72
2023/07/15 05:27:59;;;;;;;1999.90;999.90;;;22.70;39.00;;;;;;5015151;28;20179;-72
2023/07/15 05:30:25;;;;;;;1999.90;999.90;;;22.90;40.10;;;;;;5014460;28;20389;-72
2023/07/15 05:32:51;;;;;;;1999.90;999.90;;;22.90;37.50;;;;;;5013256;28;20180;-72
2023/07/15 05:35:16;;;;;;;1999.90;999.90;;;23.10;36.10;;;;;;5013552;28;20393;-72
2023/07/15 05:37:42;;;;;;;1999.90;999.90;;;23.20;33.50;;;;;;5013542;28;20408;-72
2023/07/15 05:40:12;;;;;;;1999.90;999.90;;;23.40;31.70;;;;;;5013519;28;20176;-72
2023/07/15 05:42:44;;;;;;;1999.90;999.90;;;23.60;30.10;;;;;;5013075;28;20187;-71
2023/07/15 05:45:10;;;;;;;1999.90;999.90;;;23.70;30.20;;;;;;5013318;28;20799;-72
2023/07/15 05:47:40;;;;;;;1999.90;999.90;;;24.00;29.10;;;;;;5013333;28;20467;-72
2023/07/15 05:50:07;;;;;;;1999.90;999.90;;;24.10;28.60;;;;;;5013203;28;20383;-72
2023/07/15 05:52:33;;;;;;;1999.90;999.90;;;24.20;28.60;;;;;;5012873;28;20434;-72
2023/07/15 05:54:58;;;;;;;1999.90;999.90;;;24.30;28.50;;;;;;5013198;28;20386;-72
2023/07/15 05:57:24;;;;;;;1999.90;999.90;;;24.40;29.00;;;;;;5013090;28;20502;-72
2023/07/15 05:59:50;;;;;;;1999.90;999.90;;;24.40;28.90;;;;;;5013090;28;20212;-72
2023/07/15 06:02:15;;;;;;;1999.90;999.90;;;24.50;28.90;;;;;;5012703;28;20571;-72
2023/07/15 06:04:41;;;;;;;1999.90;999.90;;;24.60;29.20;;;;;;5012988;28;20204;-72
2023/07/15 06:07:06;;;;;;;1999.90;999.90;;;24.60;29.90;;;;;;5013058;28;20173;-72
2023/07/15 06:09:32;;;;;;;1999.90;999.90;;;24.80;29.00;;;;;;5012928;28;20639;-72
2023/07/15 06:11:58;;;;;;;1999.90;999.90;;;24.90;27.50;;;;;;5012502;28;20193;-71
2023/07/15 06:14:23;;;;;;;1999.90;999.90;;;24.90;27.60;;;;;;5013060;28;20212;-72
2023/07/15 06:16:49;;;;;;;1999.90;999.90;;;25.00;28.10;;;;;;5012862;28;20173;-71
2023/07/15 06:19:14;;;;;;;1999.90;999.90;;;25.10;29.30;;;;;;5011333;28;20647;-72
2023/07/15 06:21:41;;;;;;;1999.90;999.90;;;25.10;29.80;;;;;;5012471;28;20197;-72
2023/07/15 06:24:06;;;;;;;1999.90;999.90;;;25.20;29.30;;;;;;5012627;28;20177;-72
2023/07/15 06:26:32;;;;;;;1999.90;999.90;;;25.20;29.00;;;;;;5012870;28;20441;-72
2023/07/15 06:28:59;;;;;;;1999.90;999.90;;;25.40;28.70;;;;;;5012719;28;20177;-71
2023/07/15 06:31:26;;;;;;;1999.90;999.90;;;25.50;27.80;;;;;;5012276;28;20195;-71
2023/07/15 06:33:52;;;;;;;1999.90;999.90;;;25.60;28.30;;;;;;5012506;28;20491;-72
2023/07/15 06:36:18;;;;;;;1999.90;999.90;;;25.60;27.30;;;;;;5012511;28;20504;-72
2023/07/15 06:38:44;;;;;;;1999.90;999.90;;;25.70;26.80;;;;;;5012454;28;20184;-72
2023/07/15 06:41:09;;;;;;;1999.90;999.90;;;25.70;27.10;;;;;;5012065;28;20901;-72
2023/07/15 06:43:35;;;;;;;1999.90;999.90;;;25.90;26.90;;;;;;5012447;28;20180;-72
2023/07/15 06:46:00;;;;;;;1999.90;999.90;;;26.00;26.50;;;;;;5011338;28;20239;-72
2023/07/15 06:48:26;;;;;;;1999.90;999.90;;;26.00;25.80;;;;;;5011986;28;20187;-72
2023/07/15 06:50:52;;;;;;;1999.90;999.90;;;26.10;25.90;;;;;;5003845;28;20276;-71
2023/07/15 06:53:17;;;;;;;1999.90;999.90;;;26.10;25.90;;;;;;5012176;28;20173;-71
2023/07/15 06:55:43;;;;;;;1999.90;999.90;;;26.10;26.20;;;;;;5006752;28;20631;-72
2023/07/15 06:58:08;;;;;;;1999.90;999.90;;;26.00;27.00;;;;;;4996158;28;20560;-72
2023/07/15 07:00:34;;;;;;;1999.90;999.90;;;26.00;26.80;;;;;;5011003;28;20216;-72
2023/07/15 07:03:00;;;;;;;1999.90;999.90;;;25.90;27.30;;;;;;5003809;28;20179;-72
2023/07/15 07:05:26;;;;;;;1999.90;999.90;;;25.90;27.30;;;;;;5012221;28;20192;-72
2023/07/15 07:07:52;;;;;;;1999.90;999.90;;;25.90;27.00;;;;;;5012113;28;20212;-72
2023/07/15 07:10:18;;;;;;;1999.90;999.90;;;25.90;26.60;;;;;;5011974;28;20417;-71
2023/07/15 07:12:44;;;;;;;1999.90;999.90;;;25.80;27.00;;;;;;5003605;28;20409;-72
2023/07/15 07:15:10;;;;;;;1999.90;999.90;;;25.80;27.20;;;;;;5012241;28;20271;-72
2023/07/15 07:17:35;;;;;;;1999.90;999.90;;;25.90;27.40;;;;;;5012038;28;20532;-72
2023/07/15 07:20:03;;;;;;;1999.90;999.90;;;25.90;27.30;;;;;;5011999;28;20382;-72
2023/07/15 07:22:29;;;;;;;1999.90;999.90;;;25.90;28.00;;;;;;5011662;28;20196;-73
2023/07/15 07:24:54;;;;;;;1999.90;999.90;;;25.90;28.10;;;;;;5011907;28;20404;-72
2023/07/15 07:27:20;;;;;;;1999.90;999.90;;;25.90;27.90;;;;;;5012180;28;20173;-71
2023/07/15 07:29:46;;;;;;;1999.90;999.90;;;25.90;27.70;;;;;;5012091;28;20173;-72
2023/07/15 07:32:11;;;;;;;1999.90;999.90;;;26.00;28.00;;;;;;5007964;28;20194;-72
2023/07/15 07:34:37;;;;;;;1999.90;999.90;;;26.20;27.60;;;;;;5005794;28;20172;-71
2023/07/15 07:37:03;;;;;;;1999.90;999.90;;;26.30;27.50;;;;;;5005892;28;20208;-71
2023/07/15 07:39:29;;;;;;;1999.90;999.90;;;26.40;27.30;;;;;;5004659;28;20178;-71
2023/07/15 07:41:55;;;;;;;1999.90;999.90;;;26.60;27.20;;;;;;5006839;28;20494;-71
2023/07/15 07:44:21;;;;;;;1999.90;999.90;;;26.60;28.00;;;;;;5015823;28;20653;-71
2023/07/15 07:46:46;;;;;;;1999.90;999.90;;;26.60;27.60;;;;;;5015484;28;20438;-71
2023/07/15 07:49:13;;;;;;;1999.90;999.90;;;26.70;27.90;;;;;;5015446;28;20489;-72
2023/07/15 07:51:39;;;;;;;1999.90;999.90;;;26.80;27.40;;;;;;5009952;28;20427;-71
2023/07/15 07:54:05;;;;;;;1999.90;999.90;;;26.70;26.80;;;;;;5013564;28;20188;-71
2023/07/15 07:56:30;;;;;;;1999.90;999.90;;;26.60;26.70;;;;;;5013600;28;20407;-71
2023/07/15 07:58:58;;;;;;;1999.90;999.90;;;26.60;27.20;;;;;;5008906;28;20197;-71
2023/07/15 08:01:28;;;;;;;1999.90;999.90;;;26.50;27.60;;;;;;5015042;28;20185;-71
2023/07/15 08:03:54;;;;;;;1999.90;999.90;;;26.40;27.80;;;;;;5015337;28;20465;-72
2023/07/15 08:06:21;;;;;;;1999.90;999.90;;;26.40;28.50;;;;;;5015186;28;20455;-72
2023/07/15 08:08:46;;;;;;;1999.90;999.90;;;26.30;29.30;;;;;;5015196;28;20407;-72
2023/07/15 08:11:12;;;;;;;1999.90;999.90;;;26.20;29.80;;;;;;5014819;28;20462;-72
2023/07/15 08:13:38;;;;;;;1999.90;999.90;;;26.30;29.90;;;;;;5015098;28;20182;-71
2023/07/15 08:16:04;;;;;;;1999.90;999.90;;;26.20;31.80;;;;;;5015114;28;20251;-71
2023/07/15 08:18:29;;;;;;;1999.90;999.90;;;26.10;33.10;;;;;;5014997;28;20199;-71
2023/07/15 08:20:55;;;;;;;1999.90;999.90;;;26.10;36.00;;;;;;5014613;28;20284;-71
2023/07/15 08:23:20;;;;;;;1999.90;999.90;;;26.00;38.70;;;;;;5014947;28;20665;-71
2023/07/15 08:25:46;;;;;;;1999.90;999.90;;;25.90;41.10;;;;;;5009429;28;20204;-71
2023/07/15 08:28:12;;;;;;;1999.90;999.90;;;25.70;43.10;;;;;;5000315;28;20170;-71
2023/07/15 08:30:37;;;;;;;1999.90;999.90;;;25.60;46.30;;;;;;4995156;28;20186;-71
2023/07/15 08:33:06;;;;;;;1999.90;999.90;;;25.40;55.80;;;;;;4994812;28;20181;-71
2023/07/15 08:35:34;;;;;;;1999.90;999.90;;;25.10;74.60;;;;;;5012085;28;20193;-74
2023/07/15 08:37:59;;;;;;;1999.90;999.90;;;24.70;92.90;;;;;;4998448;28;20422;-74
2023/07/15 08:40:25;;;;;;;1999.90;999.90;;;24.40;99.90;;;;;;5008972;28;20173;-73
2023/07/15 08:42:52;;;;;;;1999.90;999.90;;;24.00;99.90;;;;;;5009629;28;20203;-73
2023/07/15 08:45:19;;;;;;;1999.90;999.90;;;23.70;99.90;;;;;;5010110;28;20842;-73
2023/07/15 08:47:46;;;;;;;1999.90;999.90;;;23.30;99.90;;;;;;5001462;28;20917;-73
2023/07/15 08:50:15;;;;;;;1999.90;999.90;;;23.00;99.90;;;;;;5009744;28;20450;-72
2023/07/15 08:52:43;;;;;;;1999.90;999.90;;;22.60;99.90;;;;;;5010283;28;20427;-71
2023/07/15 08:55:09;;;;;;;1999.90;999.90;;;22.20;99.90;;;;;;5009822;28;20522;-71
2023/07/15 08:57:35;;;;;;;1999.90;999.90;;;21.90;99.90;;;;;;5001405;28;20990;-73
2023/07/15 09:00:05;;;;;;;1999.90;999.90;;;21.70;99.90;;;;;;5010580;28;20551;-69
2023/07/15 09:02:31;;;;;;;1999.90;999.90;;;21.50;99.90;;;;;;5009377;28;20397;-69
2023/07/15 09:04:56;;;;;;;1999.90;999.90;;;21.30;99.90;;;;;;5009047;28;20923;-69
2023/07/15 09:07:26;;;;;;;1999.90;999.90;;;21.20;99.90;;;;;;5009972;28;20190;-68
2023/07/15 09:09:52;;;;;;;1999.90;999.90;;;21.10;99.90;;;;;;5009842;28;20719;-67
2023/07/15 09:12:18;;;;;;;1999.90;999.90;;;21.10;99.90;;;;;;5020582;28;20474;-70
2023/07/15 09:14:45;;;;;;;1999.90;999.90;;;21.00;99.90;;;;;;5022248;28;20191;-68
2023/07/15 09:17:17;;;;;;;1999.90;999.90;;;21.00;99.90;;;;;;5022671;28;20191;-70
2023/07/15 09:19:44;;;;;;;1999.90;999.90;;;21.00;99.90;;;;;;5025705;28;20422;-71
2023/07/15 09:22:10;;;;;;;1999.90;999.90;;;20.90;99.90;;;;;;5020433;28;20413;-72
2023/07/15 09:24:39;;;;;;;1999.90;999.90;;;20.80;99.90;;;;;;5022129;28;21175;-70
2023/07/15 09:27:06;;;;;;;1999.90;999.90;;;20.80;99.90;;;;;;5020885;28;20203;-69
2023/07/15 09:29:32;;;;;;;1999.90;999.90;;;20.80;99.90;;;;;;5015957;28;20410;-71
2023/07/15 09:31:58;;;;;;;1999.90;999.90;;;20.90;99.90;;;;;;5002744;28;20434;-72
2023/07/15 09:34:25;;;;;;;1999.90;999.90;;;20.90;99.90;;;;;;4992802;28;21150;-71
2023/07/15 09:36:52;;;;;;;1999.90;999.90;;;20.90;99.90;;;;;;4988708;28;20406;-72
2023/07/15 09:39:22;;;;;;;1999.90;999.90;;;21.00;99.90;;;;;;5008206;28;20941;-71
2023/07/15 09:42:04;;;;;;;1999.90;999.90;;;21.10;99.90;;;;;;4999205;28;20491;-71
2023/07/15 09:44:41;;;;;;;1999.90;999.90;;;21.20;99.90;;;;;;5004460;28;20478;-71
2023/07/15 09:47:07;;;;;;;1999.90;999.90;;;21.20;99.90;;;;;;5005252;28;20510;-71
2023/07/15 09:49:34;;;;;;;1999.90;999.90;;;21.40;99.90;;;;;;5004956;28;20431;-71
2023/07/15 09:52:00;;;;;;;1999.90;999.90;;;21.50;99.90;;;;;;5001141;28;20438;-70
2023/07/15 09:54:28;;;;;;;1999.90;999.90;;;21.50;99.90;;;;;;5000596;28;20790;-70
2023/07/15 09:56:59;;;;;;;1999.90;999.90;;;21.70;99.90;;;;;;5008666;28;20777;-70
2023/07/15 09:59:29;;;;;;;1999.90;999.90;;;21.80;99.90;;;;;;5007784;28;20469;-70
2023/07/15 10:02:02;;;;;;;1999.90;999.90;;;21.80;99.90;;;;;;5008140;28;20410;-70
2023/07/15 10:04:33;;;;;;;1999.90;999.90;;;21.90;99.90;;;;;;5008794;28;20455;-70
2023/07/15 10:07:00;;;;;;;1999.90;999.90;;;22.00;99.90;;;;;;5008554;28;20467;-71
2023/07/15 10:09:27;;;;;;;1999.90;999.90;;;22.10;99.90;;;;;;5008165;28;20434;-70
2023/07/15 10:11:54;;;;;;;1999.90;999.90;;;22.20;99.90;;;;;;5008221;28;20756;-71
2023/07/15 10:14:21;;;;;;;1999.90;999.90;;;22.30;99.90;;;;;;5008393;28;20906;-71
2023/07/15 10:17:15;;;;;;;1999.90;999.90;;;22.50;99.90;;;;;;5008101;28;20796;-71
2023/07/15 10:19:45;;;;;;;1999.90;999.90;;;22.70;99.90;;;;;;5008656;28;20387;-71
2023/07/15 10:22:12;;;;;;;1999.90;999.90;;;22.90;99.90;;;;;;5007923;28;20421;-71
2023/07/15 10:24:42;;;;;;;1999.90;999.90;;;23.00;99.90;;;;;;5007827;28;20394;-71
2023/07/15 10:27:10;;;;;;;1999.90;999.90;;;23.00;99.90;;;;;;5008076;28;20434;-71
2023/07/15 10:29:42;;;;;;;1999.90;999.90;;;23.10;99.90;;;;;;5008200;28;20453;-71
2023/07/15 10:32:10;;;;;;;1999.90;999.90;;;23.10;99.90;;;;;;5008293;28;20452;-71
2023/07/15 10:34:41;;;;;;;1999.90;999.90;;;23.10;99.90;;;;;;5007776;28;20420;-71
2023/07/15 10:37:11;;;;;;;1999.90;999.90;;;23.10;99.90;;;;;;5007639;28;20451;-70
2023/07/15 10:39:38;;;;;;;1999.90;999.90;;;23.20;99.90;;;;;;5008150;28;20446;-70
2023/07/15 10:42:12;;;;;;;1999.90;999.90;;;23.20;99.90;;;;;;5008051;28;20474;-71
2023/07/15 10:44:40;;;;;;;1999.90;999.90;;;23.30;99.90;;;;;;5007236;28;20401;-71
2023/07/15 10:47:07;;;;;;;1999.90;999.90;;;23.40;99.90;;;;;;5007767;28;20430;-71
2023/07/15 10:49:33;;;;;;;1999.90;999.90;;;23.50;99.90;;;;;;5008316;28;20394;-70
2023/07/15 10:51:59;;;;;;;1999.90;999.90;;;23.70;99.90;;;;;;5007752;28;20435;-71
2023/07/15 10:54:26;;;;;;;1999.90;999.90;;;23.80;99.90;;;;;;5007832;28;20188;-71
2023/07/15 10:56:52;;;;;;;1999.90;999.90;;;23.90;99.90;;;;;;5008322;28;20795;-70
2023/07/15 10:59:18;;;;;;;1999.90;999.90;;;24.10;99.90;;;;;;5007759;28;20443;-71
2023/07/15 11:01:44;;;;;;;1999.90;999.90;;;24.30;99.90;;;;;;5007373;28;20406;-71
2023/07/15 11:04:10;;;;;;;1999.90;999.90;;;24.40;99.90;;;;;;5007939;28;20235;-70
2023/07/15 11:06:36;;;;;;;1999.90;999.90;;;24.50;99.90;;;;;;5006873;28;20523;-71
2023/07/15 11:09:22;;;;;;;1999.90;999.90;;;24.50;99.90;;;;;;5007732;28;20818;-71
2023/07/15 11:11:50;;;;;;;1999.90;999.90;;;24.60;99.90;;;;;;5007211;28;20864;-71
2023/07/15 11:14:26;;;;;;;1999.90;999.90;;;24.60;99.90;;;;;;5007102;28;20419;-71
2023/07/15 11:16:57;;;;;;;1999.90;999.90;;;24.60;99.90;;;;;;5008053;28;20426;-71
2023/07/15 11:19:24;;;;;;;1999.90;999.90;;;24.70;99.90;;;;;;5008483;28;20419;-70
2023/07/15 11:21:56;;;;;;;1999.90;999.90;;;24.70;99.90;;;;;;5006742;28;20435;-71
2023/07/15 11:24:23;;;;;;;1999.90;999.90;;;24.80;99.90;;;;;;4998957;28;20828;-71
2023/07/15 11:26:50;;;;;;;1999.90;999.90;;;25.00;99.90;;;;;;4987965;28;20970;-72
2023/07/15 11:29:23;;;;;;;1999.90;999.90;;;25.10;99.90;;;;;;4988384;28;21013;-71
2023/07/15 11:31:51;;;;;;;1999.90;999.90;;;25.20;99.90;;;;;;5007153;28;20428;-71
2023/07/15 11:34:19;;;;;;;1999.90;999.90;;;25.40;99.90;;;;;;4999232;28;20408;-71
2023/07/15 11:36:46;;;;;;;1999.90;999.90;;;25.70;99.90;;;;;;5006633;28;20495;-71
2023/07/15 11:39:13;;;;;;;1999.90;999.90;;;25.90;99.90;;;;;;5007675;28;20427;-72
2023/07/15 11:41:39;;;;;;;1999.90;999.90;;;26.00;99.90;;;;;;5000077;28;20912;-71
2023/07/15 11:44:07;;;;;;;1999.90;999.90;;;26.10;99.90;;;;;;5009454;28;20484;-68
2023/07/15 11:46:33;;;;;;;1999.90;999.90;;;26.00;99.90;;;;;;5019647;28;20456;-71
2023/07/15 11:48:59;;;;;;;1999.90;999.90;;;26.10;99.90;;;;;;5014517;28;20417;-70
2023/07/15 11:51:25;;;;;;;1999.90;999.90;;;27.20;99.90;;;;;;5015791;28;20455;-68
2023/07/15 11:53:54;;;;;;;1999.90;999.90;;;25.90;99.90;;;;;;5007775;28;20186;-70
2023/07/15 11:56:40;;;;;;;1999.90;999.90;;;25.80;99.90;;;;;;5014340;28;20401;-73